CheckWX is a tool to help pilots better visualize weather data.  It is not intended as a substitute for an official pre-flight weather briefing.

08:40:24 UTC

KASL METAR
Harrison County Airport
Marshall, Texas, USA
Current

25 mins ago

KASL 060815Z AUTO 00000KT 10SM CLR 16/15 A3006 RMK AO1 T01550145
Observed
Apr-6 @ 08:15 UTC
Visibility
Flight Rules
VFR
Cloud Levels
  • Clear skies
Temperature
16°C / 61°F
Dewpoint
14°C / 57°F
Humidity
88%
Altimeter
30.06" Hg
Pressure
1017.92 hPa
Previous

45 mins ago

KASL 060755Z AUTO 34003KT 10SM CLR 15/14 A3007 RMK AO1 T01480137
Observed
Apr-6 @ 07:55 UTC
Wind
  • 340° at 3 KTS
Visibility
Flight Rules
VFR
Cloud Levels
  • Clear skies
Temperature
15°C / 59°F
Dewpoint
14°C / 57°F
Humidity
94%
Altimeter
30.07" Hg
Pressure
1018.32 hPa
Previous

1 hour ago

KASL 060735Z AUTO 00000KT 10SM CLR 15/14 A3006 RMK AO1 T01530143
Observed
Apr-6 @ 07:35 UTC
Visibility
Flight Rules
VFR
Cloud Levels
  • Clear skies
Temperature
15°C / 59°F
Dewpoint
14°C / 57°F
Humidity
94%
Altimeter
30.06" Hg
Pressure
1017.92 hPa